Cocos Island, Australian Islands

10:52 AM CCT on August 31, 2016 (GMT +0630)
Cocos (Keeling) Island International | | Change Station

Elev 10 ft 12.19 °S, 96.83 °E | Updated 22 minutes ago

Scattered Clouds
Scattered Clouds
81 °F
Feels Like 85 °F
N
15
Wind Variable Wind from SSE

Today
High -- | Low -- °F
--% Chance of Precip.
Yesterday
High -- | Low -- °F
Precip. -- in
Pressure 29.98 in
Visibility 6.2 miles
Clouds Scattered Clouds 1700 ft
Heat Index 85 °F
Dew Point 72 °F
Humidity 74%
Rainfall 0.00 in
Snow Depth Not available.
6:07 AM 5:59 PM
Waning Crescent, 2% visible
METAR YPCC 310400Z 15013KT 9999 SCT017 27/22 Q1015
Pressure 29.98 in
Visibility 6.2 miles
Clouds Scattered Clouds 1700 ft
Heat Index 85 °F
Dew Point 72 °F
Humidity 74%
Rainfall 0.00 in
Snow Depth Not available.
6:07 AM 5:59 PM
Waning Crescent, 2% visible
METAR YPCC 310400Z 15013KT 9999 SCT017 27/22 Q1015

10-Day Weather Forecast

No radar image for this location.
×

Almanac

Astronomy

Aug. 31, 2016 Rise Set
Actual Time
Civil Twilight
Nautical Twilight
Astronomical Twilight
Moon
Length of Visible Light
Length of Day
Tomorrow will be .
, % of the Moon is Illuminated

Today's Extremes

Country Highs Country Lows

Community

WunderPhotos

Upload Photos

1,936,035 photos uploaded!

WunderBlog® & News

Nearby

Air Quality

  Air Quality AQ Index Pollutant
Not available.

Snow Depth

Station Depth Elevation

Earthquake Activity

City Distance Mag. Time & Date
Minimum magnitude displayed is 2.5.

Coastal Water Temperatures

Place Temperature

Stations

Nearby Weather Stations

Station Location Temp. Windchill Dew Point Humidity Wind Precip. Elev Updated Type